createdAt,value
2023-02-24T00:01:54.468Z,20.25
2023-02-24T00:04:21.473Z,19.88
2023-02-24T00:06:48.822Z,19.27
2023-02-24T00:09:22.777Z,18.92
2023-02-24T00:11:55.742Z,19.35
2023-02-24T00:14:24.772Z,17.50
2023-02-24T00:16:53.325Z,21.20
2023-02-24T00:19:23.616Z,17.13
2023-02-24T00:21:51.605Z,18.08
2023-02-24T00:24:18.861Z,18.27
2023-02-24T00:26:46.073Z,22.85
2023-02-24T00:29:13.605Z,24.60
2023-02-24T00:31:42.515Z,19.02
2023-02-24T00:34:12.184Z,19.25
2023-02-24T00:36:39.562Z,18.23
2023-02-24T00:39:09.868Z,19.73
2023-02-24T00:41:43.469Z,17.92
2023-02-24T00:44:14.596Z,20.23
2023-02-24T00:46:44.747Z,19.13
2023-02-24T00:49:17.268Z,18.30
2023-02-24T00:51:48.567Z,18.35
2023-02-24T00:54:17.201Z,16.40
2023-02-24T00:56:46.459Z,15.43
2023-02-24T00:59:16.993Z,20.70
2023-02-24T01:01:45.169Z,19.77
2023-02-24T01:04:13.417Z,20.63
2023-02-24T01:06:46.503Z,17.55
2023-02-24T01:09:16.086Z,16.58
2023-02-24T01:12:03.561Z,18.08
2023-02-24T01:14:32.744Z,16.75
2023-02-24T01:17:00.283Z,15.48
2023-02-24T01:19:30.532Z,17.95
2023-02-24T01:22:06.686Z,20.73
2023-02-24T01:24:36.249Z,18.10
2023-02-24T01:27:04.146Z,19.35
2023-02-24T01:29:31.143Z,20.88
2023-02-24T01:32:02.846Z,16.95
2023-02-24T01:34:29.732Z,20.35
2023-02-24T01:36:58.174Z,19.25
2023-02-24T01:39:25.957Z,16.58
2023-02-24T01:41:55.482Z,14.77
2023-02-24T01:44:25.217Z,18.27
2023-02-24T01:46:53.723Z,16.80
2023-02-24T01:49:29.810Z,20.70
2023-02-24T01:52:05.315Z,17.58
2023-02-24T01:55:07.840Z,16.90
2023-02-24T01:57:38.819Z,15.32
2023-02-24T02:00:11.831Z,15.68
2023-02-24T02:02:45.738Z,15.25
2023-02-24T02:05:14.072Z,20.25
2023-02-24T02:07:41.679Z,20.77
2023-02-24T02:10:09.677Z,21.80
2023-02-24T02:12:44.215Z,20.25
2023-02-24T02:15:14.613Z,25.05
2023-02-24T02:18:05.035Z,24.33
2023-02-24T02:21:08.760Z,19.70
2023-02-24T02:23:44.398Z,22.55
2023-02-24T02:26:18.862Z,20.05
2023-02-24T02:31:15.689Z,17.48
2023-02-24T02:34:07.920Z,16.77
2023-02-24T02:37:06.001Z,15.63
2023-02-24T02:39:43.454Z,17.15
2023-02-24T02:42:25.984Z,20.10
2023-02-24T02:45:13.357Z,18.70
2023-02-24T02:47:43.301Z,18.50
2023-02-24T02:50:26.969Z,22.88
2023-02-24T02:53:08.792Z,25.50
2023-02-24T02:55:45.188Z,23.13
2023-02-24T02:58:20.108Z,24.73
2023-02-24T03:01:01.790Z,18.90
2023-02-24T03:03:36.726Z,18.42
2023-02-24T03:06:12.059Z,19.58
2023-02-24T03:11:14.096Z,19.65
2023-02-24T03:13:45.541Z,18.92
2023-02-24T03:16:13.409Z,19.27
2023-02-24T03:18:45.568Z,18.90
2023-02-24T03:21:17.200Z,16.95
2023-02-24T03:23:49.359Z,22.83
2023-02-24T03:26:29.095Z,19.92
2023-02-24T03:29:24.066Z,20.25
2023-02-24T03:32:13.533Z,18.15
2023-02-24T03:34:56.865Z,17.80
2023-02-24T03:37:27.893Z,19.17
2023-02-24T03:39:59.463Z,18.17
2023-02-24T03:42:34.087Z,16.90
2023-02-24T03:45:02.063Z,20.85
2023-02-24T03:47:30.280Z,20.00
2023-02-24T03:49:57.864Z,21.67
2023-02-24T03:52:49.229Z,20.20
2023-02-24T03:55:33.428Z,18.73
2023-02-24T03:58:01.211Z,20.50
2023-02-24T04:03:09.786Z,16.92
2023-02-24T04:08:17.118Z,15.65
2023-02-24T04:10:53.046Z,16.08
2023-02-24T04:13:44.188Z,20.45
2023-02-24T04:16:30.026Z,20.30
2023-02-24T04:19:03.712Z,18.13
2023-02-24T04:21:33.240Z,20.80
2023-02-24T04:24:08.581Z,21.50
2023-02-24T04:26:40.435Z,19.65
2023-02-24T04:29:09.776Z,19.55
2023-02-24T04:31:39.109Z,22.77
2023-02-24T04:34:09.459Z,23.77
2023-02-24T04:36:38.730Z,21.50
2023-02-24T04:39:07.626Z,18.48
2023-02-24T04:41:35.830Z,18.23
2023-02-24T04:44:02.660Z,17.58
2023-02-24T04:46:32.595Z,21.15
2023-02-24T04:49:02.119Z,20.48
2023-02-24T04:51:31.860Z,20.95
2023-02-24T04:53:58.647Z,20.27
2023-02-24T04:56:25.458Z,21.92
2023-02-24T04:58:52.235Z,18.90
2023-02-24T05:01:19.521Z,18.60
2023-02-24T05:03:47.685Z,17.85
2023-02-24T05:06:17.253Z,15.82
2023-02-24T05:08:44.575Z,16.00
2023-02-24T05:11:19.101Z,19.33
2023-02-24T05:13:46.246Z,16.27
2023-02-24T05:16:17.449Z,17.17
2023-02-24T05:18:44.826Z,19.55
2023-02-24T05:21:32.720Z,19.05
2023-02-24T05:23:59.739Z,18.85
2023-02-24T05:26:27.136Z,23.92
2023-02-24T05:28:56.518Z,19.65
2023-02-24T05:31:26.651Z,18.58
2023-02-24T05:33:57.665Z,16.45
2023-02-24T05:36:26.836Z,15.43
2023-02-24T05:38:57.957Z,16.42
2023-02-24T05:41:32.657Z,18.75
2023-02-24T05:44:02.450Z,18.25
2023-02-24T05:46:32.794Z,21.88
2023-02-24T05:49:02.580Z,21.15
2023-02-24T05:51:36.473Z,22.70
2023-02-24T05:54:05.097Z,21.67
2023-02-24T05:56:34.028Z,20.40
2023-02-24T05:59:03.243Z,20.77
2023-02-24T06:01:37.185Z,23.92
2023-02-24T06:04:06.348Z,23.33
2023-02-24T06:06:38.700Z,24.52
2023-02-24T06:09:10.737Z,22.10
2023-02-24T06:11:40.592Z,28.17
2023-02-24T06:14:09.465Z,24.67
2023-02-24T06:16:39.946Z,26.75
2023-02-24T06:19:08.722Z,22.63
2023-02-24T06:21:37.132Z,25.52
2023-02-24T06:24:05.440Z,26.25
2023-02-24T06:26:36.842Z,24.75
2023-02-24T06:29:05.593Z,22.83
2023-02-24T06:31:32.437Z,23.95
2023-02-24T06:33:59.233Z,24.23
2023-02-24T06:36:26.105Z,24.05
2023-02-24T06:38:53.509Z,20.23
2023-02-24T06:41:20.572Z,22.02
2023-02-24T06:43:48.360Z,22.00
2023-02-24T06:46:16.495Z,25.25
2023-02-24T06:48:43.713Z,25.67
2023-02-24T06:51:17.267Z,24.08
2023-02-24T06:53:44.383Z,22.63
2023-02-24T06:56:18.026Z,23.95
2023-02-24T06:58:47.517Z,27.30
2023-02-24T07:01:16.682Z,25.48
2023-02-24T07:04:03.199Z,27.27
2023-02-24T07:06:35.140Z,24.13
2023-02-24T07:09:05.432Z,24.08
2023-02-24T07:11:33.869Z,27.80
2023-02-24T07:14:02.525Z,27.00
2023-02-24T07:16:29.419Z,29.02
2023-02-24T07:19:02.726Z,27.25
2023-02-24T07:21:39.320Z,24.20
2023-02-24T07:24:08.408Z,23.42
2023-02-24T07:26:35.472Z,24.20
2023-02-24T07:29:06.445Z,23.23
2023-02-24T07:31:34.829Z,24.23
2023-02-24T07:34:02.201Z,23.45
2023-02-24T07:36:30.435Z,24.50
2023-02-24T07:38:58.969Z,26.05
2023-02-24T07:41:26.536Z,26.02
2023-02-24T07:43:55.043Z,26.77
2023-02-24T07:46:27.920Z,26.40
2023-02-24T07:48:56.935Z,25.33
2023-02-24T07:51:25.915Z,23.23
2023-02-24T07:53:59.182Z,22.90
2023-02-24T07:56:28.736Z,26.38
2023-02-24T07:58:59.613Z,27.05
2023-02-24T08:01:28.528Z,23.92
2023-02-24T08:03:58.506Z,29.40
2023-02-24T08:06:37.766Z,27.95
2023-02-24T08:09:20.337Z,23.10
2023-02-24T08:11:52.492Z,29.40
2023-02-24T08:14:20.466Z,30.98
2023-02-24T08:16:49.964Z,32.20
2023-02-24T08:19:22.185Z,32.00
2023-02-24T08:21:52.542Z,31.45
2023-02-24T08:24:25.343Z,28.25
2023-02-24T08:27:04.370Z,30.20
2023-02-24T08:29:55.254Z,29.83
2023-02-24T08:32:24.806Z,29.90
2023-02-24T08:34:56.766Z,25.83
2023-02-24T08:37:25.370Z,29.05
2023-02-24T08:39:54.105Z,26.00
2023-02-24T08:42:29.704Z,24.85
2023-02-24T08:44:58.341Z,26.30
2023-02-24T08:47:31.029Z,27.85
2023-02-24T08:50:01.951Z,29.75
2023-02-24T08:52:30.177Z,30.33
2023-02-24T08:55:01.708Z,31.30
2023-02-24T08:57:28.690Z,30.08
2023-02-24T08:59:59.967Z,27.17
2023-02-24T09:02:29.517Z,29.80
2023-02-24T09:05:12.455Z,26.77
2023-02-24T09:07:42.568Z,26.20
2023-02-24T09:10:18.105Z,29.73
2023-02-24T09:12:45.193Z,22.77
2023-02-24T09:15:16.957Z,27.70
2023-02-24T09:17:45.072Z,26.40
2023-02-24T09:20:39.637Z,29.50
2023-02-24T09:23:09.649Z,20.50
2023-02-24T09:25:41.747Z,21.98
2023-02-24T09:28:17.079Z,25.17
2023-02-24T09:30:56.274Z,29.75
2023-02-24T09:33:28.592Z,31.42
2023-02-24T09:36:10.281Z,24.85
2023-02-24T09:39:01.565Z,24.98
2023-02-24T09:41:54.793Z,27.85
2023-02-24T09:44:24.813Z,29.23
2023-02-24T09:47:15.949Z,31.23
2023-02-24T09:49:56.184Z,31.30
2023-02-24T09:52:52.168Z,29.30
2023-02-24T09:56:00.263Z,28.30
2023-02-24T09:58:47.821Z,28.08
2023-02-24T10:01:36.189Z,27.90
2023-02-24T10:04:21.027Z,27.52
2023-02-24T10:06:50.002Z,31.75
2023-02-24T10:09:34.932Z,27.88
2023-02-24T10:12:28.914Z,28.02
2023-02-24T10:15:20.433Z,26.33
2023-02-24T10:17:57.052Z,26.83
2023-02-24T10:20:45.911Z,25.55
2023-02-24T10:23:12.689Z,25.77
2023-02-24T10:25:54.135Z,28.50
2023-02-24T10:28:40.856Z,23.58
2023-02-24T10:31:26.302Z,25.55
2023-02-24T10:34:01.114Z,22.80
2023-02-24T10:36:35.369Z,22.75
2023-02-24T10:39:20.493Z,26.63
2023-02-24T10:44:38.947Z,20.80
2023-02-24T10:47:13.886Z,22.27
2023-02-24T10:49:56.751Z,25.25
2023-02-24T10:52:37.128Z,25.05
2023-02-24T10:55:28.297Z,20.90
2023-02-24T10:58:15.988Z,22.27
2023-02-24T11:01:05.936Z,22.98
2023-02-24T11:03:41.672Z,21.52
2023-02-24T11:06:52.713Z,19.27
2023-02-24T11:09:28.483Z,22.50
2023-02-24T11:12:16.658Z,27.70
2023-02-24T11:15:12.102Z,20.85
2023-02-24T11:17:47.915Z,21.45
2023-02-24T11:20:47.457Z,22.83
2023-02-24T11:23:23.516Z,21.67
2023-02-24T11:25:59.022Z,20.70
2023-02-24T11:28:40.793Z,25.48
2023-02-24T11:31:29.502Z,21.65
2023-02-24T11:34:20.315Z,20.38
2023-02-24T11:37:16.400Z,19.63
2023-02-24T11:39:54.994Z,21.38
2023-02-24T11:42:34.413Z,23.25
2023-02-24T11:45:32.790Z,22.63
2023-02-24T11:48:15.195Z,22.98
2023-02-24T11:50:59.706Z,18.85
2023-02-24T11:53:41.883Z,23.27
2023-02-24T11:56:14.610Z,20.73
2023-02-24T11:58:50.784Z,18.80
2023-02-24T12:01:28.025Z,18.63
2023-02-24T12:04:07.137Z,23.10
2023-02-24T12:06:46.147Z,19.35
2023-02-24T12:09:19.747Z,20.40
2023-02-24T12:12:15.798Z,21.20
2023-02-24T12:14:53.441Z,18.33
2023-02-24T12:17:49.484Z,19.48
2023-02-24T12:20:23.582Z,18.98
2023-02-24T12:22:56.665Z,20.08
2023-02-24T12:25:32.558Z,21.10
2023-02-24T12:28:13.516Z,20.05
2023-02-24T12:30:49.117Z,18.77
2023-02-24T12:33:28.071Z,18.52
2023-02-24T12:36:03.053Z,18.45
2023-02-24T12:38:38.408Z,19.02
2023-02-24T12:41:50.313Z,17.13
2023-02-24T12:44:57.657Z,17.92
2023-02-24T12:47:38.427Z,16.92
2023-02-24T12:50:31.999Z,16.23
2023-02-24T12:52:58.817Z,17.63
2023-02-24T12:55:25.574Z,16.38
2023-02-24T12:58:06.532Z,17.60
2023-02-24T13:01:01.527Z,17.27
2023-02-24T13:03:54.464Z,15.85
2023-02-24T13:06:48.607Z,17.90
2023-02-24T13:09:38.494Z,14.30
2023-02-24T13:12:27.195Z,14.73
2023-02-24T13:14:54.703Z,14.50
2023-02-24T13:17:29.659Z,15.00
2023-02-24T13:19:56.907Z,13.35
2023-02-24T13:22:32.268Z,13.52
2023-02-24T13:25:08.096Z,12.90
2023-02-24T13:27:42.706Z,13.82
2023-02-24T13:30:13.198Z,9.70
2023-02-24T13:32:44.908Z,9.95
2023-02-24T13:35:18.038Z,13.65
2023-02-24T13:37:46.936Z,11.52
2023-02-24T13:40:16.713Z,9.40
2023-02-24T13:42:55.902Z,8.90
2023-02-24T13:45:45.171Z,8.75
2023-02-24T13:48:41.315Z,10.80
2023-02-24T13:51:51.384Z,11.55
2023-02-24T13:54:30.243Z,11.82
2023-02-24T13:57:24.349Z,11.65
2023-02-24T14:00:12.698Z,9.63
2023-02-24T14:02:44.098Z,9.57
2023-02-24T14:05:25.907Z,8.57
2023-02-24T14:07:53.835Z,9.30
2023-02-24T14:10:25.950Z,7.15
2023-02-24T14:13:17.980Z,9.20
2023-02-24T14:15:47.160Z,9.40
2023-02-24T14:18:28.792Z,8.45
2023-02-24T14:20:58.160Z,7.78
2023-02-24T14:23:34.033Z,8.73
2023-02-24T14:26:06.621Z,8.63
2023-02-24T14:28:39.511Z,7.47
2023-02-24T14:31:14.164Z,7.07
2023-02-24T14:33:43.442Z,6.32
2023-02-24T14:36:24.677Z,4.97
2023-02-24T14:39:09.297Z,5.15
2023-02-24T14:41:36.821Z,6.07
2023-02-24T14:44:27.855Z,5.70
2023-02-24T14:46:57.151Z,6.53
2023-02-24T14:49:25.637Z,5.82
2023-02-24T14:52:16.168Z,7.68
2023-02-24T14:54:48.655Z,5.57
2023-02-24T14:57:21.754Z,5.85
2023-02-24T14:59:55.660Z,5.43
2023-02-24T15:02:26.545Z,6.10
2023-02-24T15:04:56.297Z,6.75
2023-02-24T15:07:30.336Z,8.07
2023-02-24T15:09:58.696Z,8.95
2023-02-24T15:12:33.126Z,9.50
2023-02-24T15:17:38.747Z,9.82
2023-02-24T15:20:30.193Z,7.15
2023-02-24T15:22:57.579Z,7.78
2023-02-24T15:25:45.528Z,5.80
2023-02-24T15:28:32.925Z,5.72
2023-02-24T15:31:18.088Z,7.63
2023-02-24T15:33:53.183Z,6.57
2023-02-24T15:36:23.692Z,7.18
2023-02-24T15:38:57.954Z,6.80
2023-02-24T15:41:24.900Z,8.32
2023-02-24T15:43:56.138Z,5.68
2023-02-24T15:46:28.741Z,5.80
2023-02-24T15:48:57.446Z,5.78
2023-02-24T15:51:45.339Z,6.85
2023-02-24T15:54:36.028Z,4.90
2023-02-24T15:57:05.334Z,5.72
2023-02-24T15:59:32.207Z,6.07
2023-02-24T16:01:59.139Z,4.50
2023-02-24T16:04:27.543Z,5.90
2023-02-24T16:06:56.917Z,5.13
2023-02-24T16:09:36.312Z,6.38
2023-02-24T16:12:08.884Z,5.22
2023-02-24T16:14:36.099Z,4.18
2023-02-24T16:17:06.717Z,5.30
2023-02-24T16:19:33.747Z,5.15
2023-02-24T16:22:00.522Z,5.43
2023-02-24T16:24:27.310Z,4.25
2023-02-24T16:26:54.152Z,4.18
2023-02-24T16:29:20.923Z,6.18
2023-02-24T16:31:48.219Z,5.88
2023-02-24T16:34:16.087Z,5.93
2023-02-24T16:36:43.781Z,5.03
2023-02-24T16:39:12.563Z,5.47
2023-02-24T16:41:40.655Z,5.40
2023-02-24T16:44:08.005Z,3.50
2023-02-24T16:46:38.014Z,3.80
2023-02-24T16:49:08.233Z,5.72
2023-02-24T16:51:35.587Z,6.57
2023-02-24T16:54:02.410Z,4.28
2023-02-24T16:56:29.278Z,4.32
2023-02-24T16:58:56.052Z,4.35
2023-02-24T17:01:22.900Z,3.53
2023-02-24T17:03:52.324Z,4.30
2023-02-24T17:06:22.338Z,3.75
2023-02-24T17:08:50.290Z,4.07
2023-02-24T17:11:20.213Z,3.45
2023-02-24T17:13:47.160Z,3.38
2023-02-24T17:16:13.990Z,3.72
2023-02-24T17:18:40.868Z,3.15
2023-02-24T17:21:07.674Z,3.95
2023-02-24T17:23:34.634Z,4.00
2023-02-24T17:26:02.770Z,5.18
2023-02-24T17:28:30.282Z,3.70
2023-02-24T17:30:57.483Z,4.95
2023-02-24T17:33:24.339Z,3.80
2023-02-24T17:35:51.318Z,3.63
2023-02-24T17:38:20.585Z,2.92
2023-02-24T17:40:47.825Z,2.42
2023-02-24T17:43:15.036Z,2.35
2023-02-24T17:45:44.996Z,2.30
2023-02-24T17:48:13.971Z,3.20
2023-02-24T17:50:45.082Z,4.38
2023-02-24T17:53:12.218Z,2.05
2023-02-24T17:55:55.764Z,2.40
2023-02-24T17:58:27.718Z,2.40
2023-02-24T18:00:54.521Z,3.28
2023-02-24T18:03:21.538Z,2.30
2023-02-24T18:05:48.339Z,2.67
2023-02-24T18:08:15.081Z,3.40
2023-02-24T18:10:41.874Z,2.85
2023-02-24T18:13:08.633Z,2.80
2023-02-24T18:15:38.082Z,2.63
2023-02-24T18:18:05.010Z,3.78
2023-02-24T18:20:31.777Z,2.95
2023-02-24T18:22:58.524Z,2.55
2023-02-24T18:25:25.297Z,5.05
2023-02-24T18:27:52.569Z,7.72
2023-02-24T18:30:19.650Z,5.53
2023-02-24T18:32:47.377Z,4.65
2023-02-24T18:35:15.902Z,5.07
2023-02-24T18:37:43.620Z,2.65
2023-02-24T18:40:11.435Z,4.38
2023-02-24T18:42:38.740Z,4.05
2023-02-24T18:45:06.591Z,4.35
2023-02-24T18:47:33.768Z,5.07
2023-02-24T18:50:00.939Z,4.93
2023-02-24T18:52:28.301Z,2.58
2023-02-24T18:54:55.658Z,2.45
2023-02-24T18:57:22.515Z,2.00
2023-02-24T18:59:50.837Z,2.78
2023-02-24T19:02:17.839Z,2.40
2023-02-24T19:04:45.917Z,3.33
2023-02-24T19:07:13.818Z,2.70
2023-02-24T19:09:41.827Z,2.38
2023-02-24T19:12:09.271Z,4.25
2023-02-24T19:14:37.245Z,2.83
2023-02-24T19:17:04.224Z,2.80
2023-02-24T19:19:31.426Z,2.97
2023-02-24T19:21:58.404Z,4.32
2023-02-24T19:24:25.517Z,3.75
2023-02-24T19:26:53.833Z,3.92
2023-02-24T19:29:22.096Z,3.15
2023-02-24T19:31:54.126Z,2.42
2023-02-24T19:34:21.493Z,3.45
2023-02-24T19:36:48.322Z,2.05
2023-02-24T19:39:16.661Z,2.10
2023-02-24T19:41:43.908Z,4.03
2023-02-24T19:44:11.255Z,3.95
2023-02-24T19:46:39.065Z,1.95
2023-02-24T19:49:06.482Z,2.13
2023-02-24T19:51:33.417Z,3.55
2023-02-24T19:54:03.308Z,1.45
2023-02-24T19:56:31.829Z,1.63
2023-02-24T19:59:00.467Z,2.33
2023-02-24T20:01:28.901Z,1.50
2023-02-24T20:03:58.968Z,1.48
2023-02-24T20:06:32.138Z,2.17
2023-02-24T20:09:00.265Z,2.00
2023-02-24T20:11:29.810Z,1.55
2023-02-24T20:13:56.682Z,1.60
2023-02-24T20:16:25.750Z,3.10
2023-02-24T20:18:55.477Z,2.85
2023-02-24T20:21:22.883Z,5.07
2023-02-24T20:23:50.070Z,4.07
2023-02-24T20:26:17.808Z,5.28
2023-02-24T20:28:46.358Z,3.80
2023-02-24T20:31:15.947Z,4.88
2023-02-24T20:33:43.888Z,3.30
2023-02-24T20:36:14.207Z,2.75
2023-02-24T20:38:41.265Z,4.68
2023-02-24T20:41:08.766Z,3.15
2023-02-24T20:43:35.616Z,4.00
2023-02-24T20:46:24.929Z,6.32
2023-02-24T20:48:56.192Z,3.78
2023-02-24T20:51:23.733Z,4.65
2023-02-24T20:53:57.259Z,3.72
2023-02-24T20:56:29.519Z,4.30
2023-02-24T20:59:02.007Z,3.47
2023-02-24T21:01:30.392Z,3.88
2023-02-24T21:03:58.182Z,3.92
2023-02-24T21:06:25.886Z,2.78
2023-02-24T21:08:55.853Z,2.38
2023-02-24T21:11:23.122Z,4.88
2023-02-24T21:13:51.275Z,2.72
2023-02-24T21:16:19.661Z,2.17
2023-02-24T21:18:48.188Z,5.68
2023-02-24T21:21:16.740Z,2.38
2023-02-24T21:23:44.483Z,2.60
2023-02-24T21:26:11.648Z,4.50
2023-02-24T21:28:40.248Z,2.88
2023-02-24T21:31:09.349Z,3.22
2023-02-24T21:33:36.567Z,4.68
2023-02-24T21:36:06.841Z,2.80
2023-02-24T21:38:34.446Z,2.90
2023-02-24T21:41:03.327Z,3.55
2023-02-24T21:43:30.343Z,4.30
2023-02-24T21:46:00.242Z,3.25
2023-02-24T21:48:27.088Z,3.33
2023-02-24T21:51:03.686Z,3.42
2023-02-24T21:53:33.793Z,3.25
2023-02-24T21:56:19.918Z,4.30
2023-02-24T21:58:57.064Z,4.03
2023-02-24T22:01:27.456Z,2.45
2023-02-24T22:03:55.750Z,4.40
2023-02-24T22:06:23.608Z,3.15
2023-02-24T22:08:50.554Z,4.35
2023-02-24T22:11:18.249Z,2.30
2023-02-24T22:13:46.243Z,2.58
2023-02-24T22:16:19.412Z,4.13
2023-02-24T22:18:47.209Z,3.72
2023-02-24T22:21:19.794Z,2.20
2023-02-24T22:23:48.632Z,3.50
2023-02-24T22:26:19.565Z,2.85
2023-02-24T22:28:46.968Z,4.18
2023-02-24T22:31:17.051Z,4.28
2023-02-24T22:33:44.591Z,6.40
2023-02-24T22:36:25.133Z,4.13
2023-02-24T22:38:52.358Z,2.60
2023-02-24T22:41:21.908Z,3.97
2023-02-24T22:43:49.257Z,3.70
2023-02-24T22:46:21.347Z,4.97
2023-02-24T22:48:50.290Z,3.75
2023-02-24T22:51:18.129Z,5.82
2023-02-24T22:53:46.746Z,4.45
2023-02-24T22:56:16.298Z,4.38
2023-02-24T22:58:43.501Z,4.95
2023-02-24T23:01:19.487Z,3.63
2023-02-24T23:03:46.587Z,4.45
2023-02-24T23:06:16.873Z,4.03
2023-02-24T23:08:46.877Z,6.07
2023-02-24T23:11:24.750Z,2.63
2023-02-24T23:13:52.197Z,4.28
2023-02-24T23:16:23.010Z,3.78
2023-02-24T23:18:50.956Z,4.25
2023-02-24T23:21:24.063Z,3.42
2023-02-24T23:23:56.831Z,4.45
2023-02-24T23:26:32.034Z,4.18
2023-02-24T23:28:58.844Z,4.20
2023-02-24T23:31:26.020Z,6.80
2023-02-24T23:33:54.864Z,4.35
2023-02-24T23:36:23.891Z,3.58
2023-02-24T23:38:50.934Z,3.65
2023-02-24T23:41:17.982Z,3.35
2023-02-24T23:43:44.799Z,2.15
2023-02-24T23:46:12.950Z,2.08
2023-02-24T23:48:39.873Z,3.55
2023-02-24T23:51:12.397Z,2.20
2023-02-24T23:53:44.706Z,2.67
2023-02-24T23:56:15.944Z,3.20
2023-02-24T23:58:43.005Z,1.95
